Time;durP1;ratioP1;P1;durP2;ratioP2;P2;SDS_P1;SDS_P2;PMS_P1;PMS_P2;Temp;Humidity;BMP_temperature;BMP_pressure;BME280_temperature;BME280_humidity;BME280_pressure;Samples;Min_cycle;Max_cycle;Signal;HPM_P1;HPM_P2
2024/03/17 00:00:55;;;;;;;0.10;0.10;;;;;;;11.65;81.34;100356.81;7362098;19;20106;-62
2024/03/17 00:03:22;;;;;;;0.10;0.10;;;;;;;11.63;81.26;100349.03;7358639;19;20007;-62
2024/03/17 00:05:47;;;;;;;0.10;0.10;;;;;;;11.61;80.80;100343.00;7358027;19;20147;-62
2024/03/17 00:08:14;;;;;;;0.08;0.08;;;;;;;11.60;81.15;100346.50;7357516;19;20382;-62
2024/03/17 00:10:40;;;;;;;0.10;0.10;;;;;;;11.51;81.11;100333.75;7360053;19;20014;-62
2024/03/17 00:13:06;;;;;;;0.10;0.10;;;;;;;11.57;80.95;100337.94;7362248;19;20881;-62
2024/03/17 00:15:32;;;;;;;0.10;0.10;;;;;;;11.54;80.76;100341.47;7360641;19;20826;-62
2024/03/17 00:17:57;;;;;;;0.10;0.10;;;;;;;11.56;81.30;100347.53;7359027;19;19999;-62
2024/03/17 00:20:24;;;;;;;0.10;0.10;;;;;;;11.49;80.97;100335.53;7360323;19;20006;-62
2024/03/17 00:22:51;;;;;;;0.10;0.10;;;;;;;11.48;80.95;100333.84;7360966;19;19999;-61
2024/03/17 00:25:17;;;;;;;0.10;0.10;;;;;;;11.55;80.99;100345.78;7355523;19;20014;-62
2024/03/17 00:27:44;;;;;;;0.10;0.10;;;;;;;11.49;81.32;100334.69;7359664;19;19998;-62
2024/03/17 00:30:15;;;;;;;0.00;0.00;;;;;;;11.45;81.23;100323.47;7361001;19;20010;-62
2024/03/17 00:32:41;;;;;;;0.10;0.10;;;;;;;11.56;81.29;100338.84;7350877;19;20127;-62
2024/03/17 00:35:07;;;;;;;0.10;0.10;;;;;;;11.55;81.15;100330.09;7361342;19;20928;-62
2024/03/17 00:37:33;;;;;;;0.10;0.10;;;;;;;11.55;81.36;100330.09;7354853;19;20094;-61
2024/03/17 00:40:01;;;;;;;0.10;0.10;;;;;;;11.57;81.00;100320.47;7356303;19;20006;-61
2024/03/17 00:42:26;;;;;;;0.10;0.10;;;;;;;11.57;80.90;100323.09;7355467;19;20003;-61
2024/03/17 00:44:51;;;;;;;0.10;0.10;;;;;;;11.56;80.94;100321.38;7361370;19;20010;-61
2024/03/17 00:47:17;;;;;;;0.10;0.10;;;;;;;11.55;80.97;100324.88;7359977;19;20042;-62
2024/03/17 00:49:42;;;;;;;0.08;0.08;;;;;;;11.54;80.91;100320.56;7351340;19;21028;-62
2024/03/17 00:52:08;;;;;;;0.10;0.10;;;;;;;11.40;81.06;100299.22;7359577;19;20098;-61
2024/03/17 00:54:33;;;;;;;0.10;0.10;;;;;;;11.45;80.98;100307.78;7357038;19;20025;-61
2024/03/17 00:56:58;;;;;;;0.10;0.10;;;;;;;11.45;80.73;100313.00;7358354;19;20003;-61
2024/03/17 00:59:24;;;;;;;0.10;0.10;;;;;;;11.48;80.96;100315.53;7356674;19;20346;-61
2024/03/17 01:01:49;;;;;;;0.10;0.10;;;;;;;11.47;80.83;100319.06;7352811;19;20022;-61
2024/03/17 01:04:15;;;;;;;0.10;0.10;;;;;;;11.43;81.11;100320.91;7369216;19;20002;-61
2024/03/17 01:06:40;;;;;;;0.10;0.10;;;;;;;11.42;81.00;100307.91;7360379;19;20006;-61
2024/03/17 01:09:06;;;;;;;0.10;0.10;;;;;;;11.40;80.64;100317.53;7365720;19;20421;-61
2024/03/17 01:11:32;;;;;;;0.10;0.10;;;;;;;11.37;80.96;100309.81;7368754;19;20010;-62
2024/03/17 01:13:57;;;;;;;0.10;0.10;;;;;;;11.23;80.90;100291.94;7360985;19;19999;-62
2024/03/17 01:16:23;;;;;;;0.10;0.10;;;;;;;11.33;81.02;100316.03;7363799;19;20014;-61
2024/03/17 01:18:48;;;;;;;0.10;0.10;;;;;;;11.30;80.63;100318.72;7364341;19;20757;-61
2024/03/17 01:21:14;;;;;;;0.20;0.20;;;;;;;11.28;80.58;100316.16;7366014;19;20003;-61
2024/03/17 01:23:39;;;;;;;0.10;0.10;;;;;;;11.25;81.06;100311.03;7368561;19;19995;-61
2024/03/17 01:26:05;;;;;;;0.10;0.10;;;;;;;11.24;80.96;100324.16;7363149;19;20589;-61
2024/03/17 01:28:30;;;;;;;0.08;0.08;;;;;;;11.22;80.82;100320.75;7364718;19;20474;-62
2024/03/17 01:30:56;;;;;;;0.10;0.10;;;;;;;11.18;80.89;100310.38;7361925;19;20603;-61
2024/03/17 01:33:21;;;;;;;0.10;0.10;;;;;;;11.12;80.68;100304.50;7364474;19;20079;-61
2024/03/17 01:35:47;;;;;;;0.10;0.10;;;;;;;11.13;80.92;100317.50;7363956;19;20030;-61
2024/03/17 01:38:12;;;;;;;0.10;0.10;;;;;;;11.08;81.08;100311.56;7366874;19;20034;-61
2024/03/17 01:40:38;;;;;;;0.10;0.10;;;;;;;11.07;80.92;100307.25;7366098;19;20013;-62
2024/03/17 01:43:03;;;;;;;0.10;0.10;;;;;;;11.04;80.98;100302.09;7363392;19;20098;-62
2024/03/17 01:45:31;;;;;;;0.10;0.10;;;;;;;10.97;80.80;100300.59;7365261;19;20010;-62
2024/03/17 01:47:59;;;;;;;0.10;0.10;;;;;;;10.98;81.08;100291.84;7366862;19;20846;-60
2024/03/17 01:50:32;;;;;;;0.10;0.10;;;;;;;10.95;80.72;100286.75;7363480;19;20002;-62
2024/03/17 01:53:01;;;;;;;0.00;0.00;;;;;;;10.93;80.72;100285.91;7364182;19;20047;-62
2024/03/17 01:55:28;;;;;;;0.10;0.10;;;;;;;10.89;81.13;100284.28;7365747;19;20003;-62
2024/03/17 01:57:53;;;;;;;0.10;0.10;;;;;;;10.85;80.85;100290.53;7362661;19;20010;-61
2024/03/17 02:00:20;;;;;;;0.10;0.10;;;;;;;10.72;80.97;100270.91;7366431;19;19998;-61
2024/03/17 02:02:45;;;;;;;0.10;0.10;;;;;;;10.78;81.11;100283.78;7361709;19;20441;-62
2024/03/17 02:05:11;;;;;;;0.10;0.10;;;;;;;10.75;80.75;100278.66;7366902;19;20006;-62
2024/03/17 02:07:36;;;;;;;0.10;0.10;;;;;;;10.72;81.00;100278.75;7366270;19;20038;-62
2024/03/17 02:10:05;;;;;;;0.15;0.15;;;;;;;10.69;80.81;100274.44;7365019;19;20011;-62
2024/03/17 02:12:31;;;;;;;0.10;0.10;;;;;;;10.65;81.17;100278.94;7365091;19;20538;-61
2024/03/17 02:14:59;;;;;;;0.10;0.10;;;;;;;10.63;81.22;100280.72;7363103;19;20090;-61
2024/03/17 02:17:25;;;;;;;0.10;0.10;;;;;;;10.57;81.24;100275.69;7360061;19;20002;-62
2024/03/17 02:19:52;;;;;;;0.10;0.10;;;;;;;10.55;81.20;100272.25;7366646;19;20453;-61
2024/03/17 02:22:17;;;;;;;0.10;0.10;;;;;;;10.56;81.14;100267.91;7365824;19;20483;-62
2024/03/17 02:24:44;;;;;;;0.10;0.10;;;;;;;10.52;80.88;100261.91;7365352;19;20006;-62
2024/03/17 02:27:09;;;;;;;0.10;0.10;;;;;;;10.50;81.17;100268.94;7362024;19;20635;-62
2024/03/17 02:29:36;;;;;;;0.10;0.10;;;;;;;10.47;81.27;100255.97;7363179;19;20010;-62
2024/03/17 02:32:07;;;;;;;0.10;0.10;;;;;;;10.39;81.47;100250.09;7359515;19;20475;-61
2024/03/17 02:34:36;;;;;;;0.10;0.10;;;;;;;10.43;81.20;100256.94;7359733;19;20006;-62
2024/03/17 02:37:03;;;;;;;0.10;0.10;;;;;;;10.43;81.20;100264.78;7358663;19;20035;-61
2024/03/17 02:39:35;;;;;;;;;;;;;;;10.45;80.43;100260.38;7363327;19;20010;-62
2024/03/17 02:42:07;;;;;;;0.10;0.10;;;;;;;10.42;81.02;100265.69;7364874;19;19918;-61
2024/03/17 02:44:36;;;;;;;0.10;0.10;;;;;;;10.39;81.38;100255.31;7367434;19;20486;-61
2024/03/17 02:47:04;;;;;;;0.00;0.00;;;;;;;10.36;81.50;100251.06;7367516;19;20010;-61
2024/03/17 02:49:49;;;;;;;0.10;0.10;;;;;;;10.33;81.49;100250.28;7364761;19;20527;-61
2024/03/17 02:52:15;;;;;;;0.10;0.10;;;;;;;10.33;81.34;100256.34;7368305;19;20738;-61
2024/03/17 02:54:40;;;;;;;0.10;0.10;;;;;;;10.36;81.52;100260.66;7366559;19;20034;-61
2024/03/17 02:57:06;;;;;;;0.05;0.05;;;;;;;10.35;81.80;100264.16;7361361;19;20017;-62
2024/03/17 02:59:33;;;;;;;0.10;0.10;;;;;;;10.30;81.49;100251.25;7362485;19;20109;-61
2024/03/17 03:01:59;;;;;;;0.10;0.10;;;;;;;10.36;81.46;100260.66;7362683;19;20105;-61
2024/03/17 03:04:25;;;;;;;0.10;0.10;;;;;;;10.26;81.36;100240.94;7364986;19;20011;-61
2024/03/17 03:06:51;;;;;;;0.10;0.10;;;;;;;10.36;81.86;100250.22;7365782;19;20371;-61
2024/03/17 03:09:25;;;;;;;0.20;0.20;;;;;;;10.37;81.67;100246.69;7365917;19;20003;-61
2024/03/17 03:11:51;;;;;;;0.10;0.10;;;;;;;10.37;81.58;100244.94;7367828;19;20002;-61
2024/03/17 03:14:17;;;;;;;0.10;0.10;;;;;;;10.31;81.65;100226.00;7366373;19;20543;-62
2024/03/17 03:16:42;;;;;;;0.10;0.10;;;;;;;10.40;81.37;100238.78;7365522;19;20005;-61
2024/03/17 03:19:08;;;;;;;0.10;0.10;;;;;;;10.42;81.52;100236.13;7363634;19;20514;-61
2024/03/17 03:21:33;;;;;;;0.00;0.00;;;;;;;10.36;81.37;100226.72;7365277;19;20015;-61
2024/03/17 03:23:58;;;;;;;0.10;0.10;;;;;;;10.41;81.69;100232.66;7367272;19;20003;-62
2024/03/17 03:26:24;;;;;;;0.10;0.10;;;;;;;10.41;81.26;100237.88;7361599;19;21865;-62
2024/03/17 03:28:50;;;;;;;0.10;0.10;;;;;;;10.40;81.49;100233.56;7362616;19;19999;-61
2024/03/17 03:31:15;;;;;;;0.10;0.10;;;;;;;10.32;81.40;100217.25;7363799;19;20009;-61
2024/03/17 03:33:41;;;;;;;0.10;0.10;;;;;;;10.39;81.25;100237.03;7365962;19;20010;-61
2024/03/17 03:36:12;;;;;;;0.10;0.10;;;;;;;10.41;81.19;100237.88;7363258;19;19998;-60
2024/03/17 03:38:38;;;;;;;0.05;0.05;;;;;;;10.38;81.35;100243.19;7366065;19;20006;-61
2024/03/17 03:41:08;;;;;;;0.10;0.10;;;;;;;10.37;81.35;100236.25;7365388;19;20047;-61
2024/03/17 03:43:34;;;;;;;0.10;0.10;;;;;;;10.37;81.70;100238.84;7364823;19;19998;-61
2024/03/17 03:46:00;;;;;;;0.10;0.10;;;;;;;10.37;81.14;100241.47;7362291;19;20037;-61
2024/03/17 03:48:25;;;;;;;0.10;0.10;;;;;;;10.22;81.32;100213.19;7366589;19;20029;-61
2024/03/17 03:50:51;;;;;;;0.00;0.00;;;;;;;10.34;81.23;100231.09;7364570;19;20470;-61
2024/03/17 03:53:16;;;;;;;0.10;0.10;;;;;;;10.36;81.38;100229.31;7362863;19;20114;-61
2024/03/17 03:55:41;;;;;;;0.10;0.10;;;;;;;10.36;81.26;100229.31;7366559;19;20453;-62
2024/03/17 03:58:07;;;;;;;0.10;0.10;;;;;;;10.31;81.36;100231.22;7363750;19;20005;-61
2024/03/17 04:00:32;;;;;;;0.10;0.10;;;;;;;10.34;81.31;100233.72;7364047;19;20002;-61
2024/03/17 04:02:59;;;;;;;0.05;0.05;;;;;;;10.34;81.54;100236.31;7362853;19;20365;-61
2024/03/17 04:05:25;;;;;;;0.10;0.10;;;;;;;10.36;81.73;100240.63;7365042;19;20288;-61
2024/03/17 04:07:50;;;;;;;0.10;0.10;;;;;;;10.38;81.50;100230.13;7365382;19;20002;-61
2024/03/17 04:10:18;;;;;;;0.10;0.10;;;;;;;10.30;81.45;100214.69;7362542;19;19995;-61
2024/03/17 04:12:44;;;;;;;0.10;0.10;;;;;;;10.27;81.84;100200.88;7365593;19;20011;-61
2024/03/17 04:15:13;;;;;;;0.10;0.10;;;;;;;10.38;81.58;100217.06;7360600;19;20002;-61
2024/03/17 04:17:39;;;;;;;0.10;0.10;;;;;;;10.32;81.47;100206.81;7338701;19;20029;-62
2024/03/17 04:20:08;;;;;;;0.10;0.10;;;;;;;10.38;81.25;100211.84;7366031;19;20459;-61
2024/03/17 04:22:33;;;;;;;0.10;0.10;;;;;;;10.36;81.16;100214.53;7362770;19;20062;-61
2024/03/17 04:24:59;;;;;;;0.10;0.10;;;;;;;10.35;81.02;100220.66;7360305;19;20506;-62
2024/03/17 04:27:25;;;;;;;0.10;0.10;;;;;;;10.33;81.58;100221.56;7365237;19;20026;-61
2024/03/17 04:29:53;;;;;;;0.10;0.10;;;;;;;10.33;81.34;100224.19;7361272;19;20013;-61
2024/03/17 04:32:19;;;;;;;0.10;0.10;;;;;;;10.30;81.46;100232.13;7364634;19;20026;-62
2024/03/17 04:34:44;;;;;;;0.10;0.10;;;;;;;10.25;81.25;100228.78;7361766;19;20781;-61
2024/03/17 04:37:13;;;;;;;0.10;0.10;;;;;;;10.26;81.17;100238.31;7367084;19;20007;-61
2024/03/17 04:39:44;;;;;;;0.10;0.10;;;;;;;10.24;81.44;100219.22;7371157;19;20005;-61
2024/03/17 04:42:17;;;;;;;0.10;0.10;;;;;;;10.23;81.20;100222.72;7371721;19;20027;-62
2024/03/17 04:44:43;;;;;;;0.10;0.10;;;;;;;10.20;81.08;100228.03;7367465;19;20006;-62
2024/03/17 04:47:12;;;;;;;0.10;0.10;;;;;;;10.18;81.27;100220.22;7371677;19;20685;-61
2024/03/17 04:49:42;;;;;;;0.10;0.10;;;;;;;10.18;81.10;100224.59;7370040;19;19998;-62
2024/03/17 04:52:08;;;;;;;0.10;0.10;;;;;;;10.15;81.13;100220.34;7369806;19;20005;-62
2024/03/17 04:54:34;;;;;;;0.10;0.10;;;;;;;10.14;81.16;100219.47;7372760;19;21064;-61
2024/03/17 04:57:00;;;;;;;0.10;0.10;;;;;;;10.14;81.41;100229.06;7351469;19;19998;-61
2024/03/17 04:59:26;;;;;;;0.10;0.10;;;;;;;10.13;81.21;100227.34;7368952;19;20968;-62
2024/03/17 05:01:52;;;;;;;0.10;0.10;;;;;;;10.15;81.53;100222.94;7368450;19;20002;-61
2024/03/17 05:04:18;;;;;;;0.10;0.10;;;;;;;10.17;81.46;100231.56;7371685;19;20026;-61
2024/03/17 05:06:46;;;;;;;0.10;0.10;;;;;;;10.19;81.67;100215.84;7372860;19;20003;-61
2024/03/17 05:09:13;;;;;;;0.10;0.10;;;;;;;10.14;81.92;100219.47;7369880;19;19999;-62
2024/03/17 05:11:39;;;;;;;0.10;0.10;;;;;;;10.19;81.67;100221.97;7371205;19;20073;-62
2024/03/17 05:14:05;;;;;;;0.10;0.10;;;;;;;10.17;81.77;100207.25;7369815;19;20093;-61
2024/03/17 05:16:30;;;;;;;0.00;0.00;;;;;;;10.28;81.64;100220.84;7374807;19;20031;-61
2024/03/17 05:18:56;;;;;;;0.10;0.10;;;;;;;10.31;81.35;100218.16;7369604;19;20002;-61
2024/03/17 05:21:25;;;;;;;0.10;0.10;;;;;;;10.33;81.58;100218.97;7367277;19;20987;-61
2024/03/17 05:23:52;;;;;;;0.10;0.10;;;;;;;10.35;81.69;100217.19;7370088;19;20002;-62
2024/03/17 05:26:17;;;;;;;0.10;0.10;;;;;;;10.37;81.34;100216.22;7371031;19;19998;-62
2024/03/17 05:28:44;;;;;;;0.10;0.10;;;;;;;10.40;81.22;100220.50;7371322;19;20418;-61
2024/03/17 05:31:09;;;;;;;0.10;0.10;;;;;;;10.38;81.29;100207.47;7371001;19;19999;-62
2024/03/17 05:33:34;;;;;;;0.10;0.10;;;;;;;10.43;81.56;100215.19;7367808;19;20019;-62
2024/03/17 05:36:02;;;;;;;0.10;0.10;;;;;;;10.47;81.52;100211.59;7367476;19;20017;-62
2024/03/17 05:38:29;;;;;;;0.10;0.10;;;;;;;10.48;81.46;100207.22;7370794;19;20011;-62
2024/03/17 05:41:08;;;;;;;0.10;0.10;;;;;;;10.52;80.98;100204.47;7370058;19;20357;-62
2024/03/17 05:43:38;;;;;;;0.03;0.03;;;;;;;10.52;81.44;100209.69;7366819;19;20018;-61
2024/03/17 05:46:11;;;;;;;0.10;0.10;;;;;;;10.55;81.37;100208.75;7370177;19;20041;-62
2024/03/17 05:48:39;;;;;;;0.10;0.10;;;;;;;10.56;81.31;100207.84;7365094;19;20568;-62
2024/03/17 05:51:08;;;;;;;0.10;0.10;;;;;;;10.55;81.38;100212.22;7368236;19;20790;-62
2024/03/17 05:53:35;;;;;;;0.10;0.10;;;;;;;10.48;81.11;100194.16;7365893;19;20046;-62
2024/03/17 05:56:02;;;;;;;0.10;0.10;;;;;;;10.59;81.05;100211.22;7366336;19;20014;-62
2024/03/17 05:58:27;;;;;;;0.10;0.10;;;;;;;10.59;81.02;100213.84;7368556;19;20039;-62
2024/03/17 06:00:53;;;;;;;0.10;0.10;;;;;;;10.54;80.87;100202.69;7366756;19;20014;-62
2024/03/17 06:03:18;;;;;;;0.10;0.10;;;;;;;10.61;81.08;100209.41;7367136;19;20430;-62
2024/03/17 06:05:47;;;;;;;0.10;0.10;;;;;;;10.61;81.21;100209.41;7369642;19;20029;-62
2024/03/17 06:08:13;;;;;;;0.10;0.10;;;;;;;10.63;81.21;100211.97;7369478;19;20009;-61
2024/03/17 06:10:44;;;;;;;0.10;0.10;;;;;;;10.65;81.19;100208.44;7365864;19;20007;-62
2024/03/17 06:13:14;;;;;;;0.10;0.10;;;;;;;10.63;80.69;100199.75;7370775;19;20033;-62
2024/03/17 06:15:40;;;;;;;0.10;0.10;;;;;;;10.64;81.14;100198.00;7366419;19;20003;-62
2024/03/17 06:18:08;;;;;;;0.10;0.10;;;;;;;10.63;80.90;100197.16;7368119;19;20002;-62
2024/03/17 06:20:34;;;;;;;0.10;0.10;;;;;;;10.61;80.98;100188.53;7368025;19;20471;-62
2024/03/17 06:23:00;;;;;;;0.00;0.00;;;;;;;10.61;81.00;100180.69;7369269;19;20029;-62
2024/03/17 06:25:26;;;;;;;0.10;0.10;;;;;;;10.59;80.57;100184.25;7369134;19;20015;-62
2024/03/17 06:27:51;;;;;;;0.10;0.10;;;;;;;10.55;80.99;100173.06;7365480;19;20783;-62
2024/03/17 06:30:18;;;;;;;0.10;0.10;;;;;;;10.55;80.84;100178.28;7368329;19;19998;-62
2024/03/17 06:32:45;;;;;;;0.10;0.10;;;;;;;10.52;81.05;100170.53;7364274;19;20379;-62
2024/03/17 06:35:18;;;;;;;0.10;0.10;;;;;;;10.54;80.76;100186.13;7366862;19;20002;-62
2024/03/17 06:37:44;;;;;;;0.10;0.10;;;;;;;10.49;80.84;100188.91;7368501;19;20029;-62
2024/03/17 06:40:13;;;;;;;0.00;0.00;;;;;;;10.49;81.12;100183.69;7365740;19;20019;-62
2024/03/17 06:42:39;;;;;;;0.10;0.10;;;;;;;10.44;80.72;100188.19;7368059;19;20803;-62
2024/03/17 06:45:05;;;;;;;0.10;0.10;;;;;;;10.45;80.73;100191.66;7368696;19;20010;-61
2024/03/17 06:47:31;;;;;;;0.10;0.10;;;;;;;10.44;81.14;100190.81;7367522;19;20007;-61
2024/03/17 06:49:56;;;;;;;0.10;0.10;;;;;;;10.44;80.89;100185.59;7367577;19;20002;-61
2024/03/17 06:52:22;;;;;;;0.10;0.10;;;;;;;10.41;80.96;100185.66;7367619;19;20003;-62
2024/03/17 06:54:50;;;;;;;0.10;0.10;;;;;;;10.37;81.22;100178.81;7366054;19;20007;-62
2024/03/17 06:57:16;;;;;;;0.10;0.10;;;;;;;10.47;81.22;100201.13;7365895;19;20761;-61
2024/03/17 06:59:41;;;;;;;0.10;0.10;;;;;;;10.48;81.20;100192.41;7363258;19;20011;-62
2024/03/17 07:02:07;;;;;;;0.10;0.10;;;;;;;10.50;80.94;100184.53;7366669;19;20017;-62
2024/03/17 07:04:35;;;;;;;0.10;0.10;;;;;;;10.42;80.99;100176.94;7365986;19;20017;-62
2024/03/17 07:07:01;;;;;;;0.10;0.10;;;;;;;10.54;80.96;100191.34;7367468;19;20010;-62
2024/03/17 07:09:26;;;;;;;0.10;0.10;;;;;;;10.56;81.10;100195.66;7366488;19;20002;-62
2024/03/17 07:11:53;;;;;;;0.10;0.10;;;;;;;10.58;80.90;100187.75;7363398;19;20593;-62
2024/03/17 07:14:18;;;;;;;0.10;0.10;;;;;;;10.60;80.86;100191.19;7365354;19;20006;-61
2024/03/17 07:16:44;;;;;;;0.10;0.10;;;;;;;10.61;80.74;100188.53;7366699;19;19998;-62
2024/03/17 07:19:09;;;;;;;0.00;0.00;;;;;;;10.64;81.17;100182.34;7364999;19;19999;-62
2024/03/17 07:21:34;;;;;;;0.10;0.10;;;;;;;10.67;80.74;100181.41;7365009;19;20014;-62
2024/03/17 07:24:04;;;;;;;0.10;0.10;;;;;;;10.69;80.81;100179.59;7364899;19;21184;-62
2024/03/17 07:26:30;;;;;;;0.10;0.10;;;;;;;10.72;80.94;100180.34;7366775;19;20010;-61
2024/03/17 07:28:55;;;;;;;0.10;0.10;;;;;;;10.76;80.78;100181.13;7366398;19;20005;-61
2024/03/17 07:31:21;;;;;;;0.10;0.10;;;;;;;10.79;80.85;100181.00;7368304;19;20028;-62
2024/03/17 07:33:46;;;;;;;0.10;0.10;;;;;;;10.79;80.64;100176.63;7364342;19;20085;-62
2024/03/17 07:36:12;;;;;;;0.10;0.10;;;;;;;10.86;80.90;100180.78;7366625;19;20006;-61
2024/03/17 07:38:37;;;;;;;0.10;0.10;;;;;;;10.86;80.65;100175.56;7363012;19;20696;-62
2024/03/17 07:41:05;;;;;;;0.10;0.10;;;;;;;10.94;80.75;100180.50;7357792;19;20041;-61
2024/03/17 07:43:33;;;;;;;0.10;0.10;;;;;;;10.97;80.77;100169.97;7362496;19;20014;-62
2024/03/17 07:46:05;;;;;;;0.10;0.10;;;;;;;11.05;80.67;100173.19;7367721;19;20014;-62
2024/03/17 07:48:33;;;;;;;0.10;0.10;;;;;;;11.07;80.55;100171.38;7365229;19;20007;-61
2024/03/17 07:51:09;;;;;;;0.10;0.10;;;;;;;11.10;80.22;100166.06;7363774;19;20037;-62
2024/03/17 07:53:39;;;;;;;0.10;0.10;;;;;;;11.20;80.16;100171.81;7363720;19;20026;-62
2024/03/17 07:56:09;;;;;;;0.00;0.00;;;;;;;11.27;80.18;100177.69;7362963;19;20610;-61
2024/03/17 07:58:37;;;;;;;0.10;0.10;;;;;;;11.28;79.91;100166.34;7365348;19;20045;-62
2024/03/17 08:01:04;;;;;;;0.10;0.10;;;;;;;11.32;79.85;100165.31;7367555;19;20494;-62
2024/03/17 08:03:32;;;;;;;0.08;0.08;;;;;;;11.37;79.83;100163.41;7361736;19;20002;-62
2024/03/17 08:05:58;;;;;;;0.10;0.10;;;;;;;11.41;79.76;100165.88;7367095;19;20450;-61
2024/03/17 08:08:24;;;;;;;0.10;0.10;;;;;;;11.47;80.01;100164.78;7361246;19;20002;-62
2024/03/17 08:10:50;;;;;;;0.00;0.00;;;;;;;11.49;79.67;100168.19;7363403;19;20007;-62
2024/03/17 08:13:17;;;;;;;0.10;0.10;;;;;;;11.55;79.62;100162.75;7358357;19;20010;-62
2024/03/17 08:15:43;;;;;;;0.10;0.10;;;;;;;11.59;79.67;100164.34;7361355;19;20447;-62
2024/03/17 08:18:09;;;;;;;0.10;0.10;;;;;;;11.64;79.34;100161.56;7362569;19;20014;-62
2024/03/17 08:20:42;;;;;;;0.10;0.10;;;;;;;11.70;79.54;100156.97;7364356;19;20006;-62
2024/03/17 08:23:08;;;;;;;0.13;0.13;;;;;;;11.72;79.56;100156.09;7364631;19;20006;-62
2024/03/17 08:25:34;;;;;;;0.10;0.10;;;;;;;11.73;79.44;100160.41;7365350;19;20006;-62
2024/03/17 08:28:00;;;;;;;0.10;0.10;;;;;;;11.70;79.40;100149.13;7362455;19;20030;-62
2024/03/17 08:30:26;;;;;;;0.10;0.10;;;;;;;11.84;79.23;100155.66;7362287;19;20371;-62
2024/03/17 08:32:51;;;;;;;0.10;0.10;;;;;;;11.79;79.16;100139.25;7364311;19;20010;-62
2024/03/17 08:35:16;;;;;;;0.10;0.10;;;;;;;12.01;78.93;100162.88;7339973;19;20030;-61
2024/03/17 08:37:42;;;;;;;0.17;0.17;;;;;;;12.08;79.13;100177.47;7360055;19;19998;-62
2024/03/17 08:40:08;;;;;;;0.10;0.10;;;;;;;12.13;79.03;100171.16;7360140;19;20006;-62
2024/03/17 08:42:33;;;;;;;0.08;0.08;;;;;;;12.22;79.06;100169.94;7354990;19;20021;-62
2024/03/17 08:44:58;;;;;;;0.10;0.10;;;;;;;12.29;78.65;100174.03;7361559;19;20013;-62
2024/03/17 08:47:24;;;;;;;0.10;0.10;;;;;;;12.37;78.84;100171.13;7361678;19;20099;-62
2024/03/17 08:49:52;;;;;;;0.10;0.10;;;;;;;12.49;78.55;100173.25;7357012;19;20904;-62
2024/03/17 08:52:18;;;;;;;0.10;0.10;;;;;;;12.54;78.35;100176.56;7360807;19;20016;-62
2024/03/17 08:54:47;;;;;;;0.10;0.10;;;;;;;12.65;78.44;100166.50;7357586;19;19991;-62
2024/03/17 08:57:15;;;;;;;0.20;0.20;;;;;;;12.62;78.21;100153.53;7362190;19;20002;-62
2024/03/17 08:59:41;;;;;;;0.10;0.10;;;;;;;12.80;78.40;100174.66;7356234;19;20086;-62
2024/03/17 09:02:12;;;;;;;0.10;0.10;;;;;;;12.90;78.32;100170.75;7356482;19;20013;-62
2024/03/17 09:04:38;;;;;;;0.10;0.10;;;;;;;12.94;78.25;100170.56;7359379;19;20026;-62
2024/03/17 09:07:03;;;;;;;0.10;0.10;;;;;;;13.02;78.15;100175.50;7360354;19;19999;-62
2024/03/17 09:09:29;;;;;;;0.10;0.10;;;;;;;13.08;77.66;100172.63;7358186;19;20003;-62
2024/03/17 09:11:55;;;;;;;0.10;0.10;;;;;;;13.16;77.79;100170.53;7359700;19;20006;-62
2024/03/17 09:14:21;;;;;;;0.10;0.10;;;;;;;13.24;77.65;100178.13;7356448;19;20007;-62
2024/03/17 09:16:47;;;;;;;0.20;0.20;;;;;;;13.31;77.25;100183.97;7356994;19;20006;-62
2024/03/17 09:19:12;;;;;;;0.10;0.10;;;;;;;13.39;77.82;100177.47;7358383;19;20507;-62
2024/03/17 09:21:39;;;;;;;0.10;0.10;;;;;;;13.46;77.99;100165.78;7356230;19;20006;-62
2024/03/17 09:24:07;;;;;;;0.10;0.10;;;;;;;13.53;77.89;100169.00;7367387;19;20045;-62
2024/03/17 09:26:33;;;;;;;0.13;0.13;;;;;;;13.60;77.54;100165.19;7360823;19;20030;-62
2024/03/17 09:28:59;;;;;;;0.13;0.13;;;;;;;13.67;77.56;100166.63;7366790;19;20005;-62
2024/03/17 09:31:25;;;;;;;0.20;0.20;;;;;;;13.66;77.16;100157.06;7360851;19;19998;-62
2024/03/17 09:33:51;;;;;;;0.10;0.10;;;;;;;13.79;77.53;100172.25;7364268;19;20018;-62
2024/03/17 09:36:18;;;;;;;0.10;0.10;;;;;;;13.83;77.47;100160.69;7361649;19;20003;-62
2024/03/17 09:38:45;;;;;;;0.10;0.10;;;;;;;13.89;77.29;100166.53;7364193;19;20006;-62
2024/03/17 09:41:26;;;;;;;0.10;0.10;;;;;;;14.02;77.30;100172.06;7362740;19;20014;-61
2024/03/17 09:43:53;;;;;;;0.10;0.10;;;;;;;14.07;76.79;100158.75;7365647;19;20724;-62
2024/03/17 09:46:19;;;;;;;0.20;0.20;;;;;;;13.99;76.75;100143.34;7365909;19;20051;-62
2024/03/17 09:48:44;;;;;;;0.10;0.10;;;;;;;14.23;76.76;100160.59;7364427;19;20010;-62
2024/03/17 09:51:20;;;;;;;0.10;0.10;;;;;;;14.36;76.56;100160.03;7357102;19;20006;-62
2024/03/17 09:53:45;;;;;;;0.20;0.20;;;;;;;14.35;76.45;100147.81;7363862;19;20738;-62
2024/03/17 09:56:16;;;;;;;0.10;0.10;;;;;;;14.38;76.20;100142.41;7362638;19;20010;-62
2024/03/17 09:58:42;;;;;;;0.10;0.10;;;;;;;14.48;76.33;100149.81;7365544;19;20006;-62
2024/03/17 10:01:08;;;;;;;0.10;0.10;;;;;;;14.55;75.96;100145.13;7357150;19;20007;-62
2024/03/17 10:03:46;;;;;;;0.10;0.10;;;;;;;14.67;76.68;100149.78;7360719;19;20038;-62
2024/03/17 10:06:13;;;;;;;0.20;0.20;;;;;;;14.70;76.37;100133.88;7359932;19;20725;-61
2024/03/17 10:08:42;;;;;;;0.10;0.10;;;;;;;14.86;76.35;100127.88;7360265;19;20127;-62
2024/03/17 10:11:08;;;;;;;0.15;0.15;;;;;;;14.95;76.41;100143.16;7363228;19;20010;-62
2024/03/17 10:13:33;;;;;;;0.10;0.10;;;;;;;15.09;75.71;100143.34;7353801;19;20039;-62
2024/03/17 10:15:59;;;;;;;0.10;0.10;;;;;;;15.22;75.57;100141.81;7360081;19;20007;-62
2024/03/17 10:18:24;;;;;;;0.10;0.10;;;;;;;15.35;75.59;100130.63;7361082;19;20424;-61
2024/03/17 10:20:54;;;;;;;0.10;0.10;;;;;;;15.42;75.28;100129.41;7363747;19;20490;-62
2024/03/17 10:23:20;;;;;;;0.10;0.10;;;;;;;15.38;74.92;100112.91;7362021;19;20915;-62
2024/03/17 10:25:46;;;;;;;0.10;0.10;;;;;;;15.61;75.24;100131.91;7361218;19;20010;-62
2024/03/17 10:28:13;;;;;;;0.10;0.10;;;;;;;15.78;75.27;100124.03;7363231;19;20033;-62
2024/03/17 10:30:39;;;;;;;0.10;0.10;;;;;;;15.97;74.35;100131.78;7359857;19;20003;-62
2024/03/17 10:33:08;;;;;;;0.10;0.10;;;;;;;16.17;73.96;100131.56;7358098;19;20030;-62
2024/03/17 10:35:38;;;;;;;0.10;0.10;;;;;;;16.43;74.17;100131.91;7360884;19;20005;-62
2024/03/17 10:38:05;;;;;;;0.10;0.10;;;;;;;16.66;73.00;100120.88;7366427;19;20011;-62
2024/03/17 10:40:39;;;;;;;0.20;0.20;;;;;;;16.97;72.65;100127.91;7362460;19;20013;-62
2024/03/17 10:43:05;;;;;;;0.10;0.10;;;;;;;17.15;72.38;100118.06;7361117;19;20948;-62
2024/03/17 10:45:38;;;;;;;0.20;0.20;;;;;;;17.38;71.54;100125.44;7365618;19;20003;-62
2024/03/17 10:48:08;;;;;;;0.10;0.10;;;;;;;17.60;71.65;100110.97;7365005;19;20011;-62
2024/03/17 10:50:37;;;;;;;0.10;0.10;;;;;;;17.71;71.29;100121.72;7361682;19;20003;-62
2024/03/17 10:53:10;;;;;;;0.10;0.10;;;;;;;17.75;70.96;100125.06;7368137;19;20012;-62
2024/03/17 10:56:05;;;;;;;0.10;0.10;;;;;;;17.87;72.02;100129.56;7367142;19;20082;-62
2024/03/17 10:58:38;;;;;;;0.10;0.10;;;;;;;17.85;71.40;100132.31;7365019;19;20593;-62
2024/03/17 11:01:04;;;;;;;0.10;0.10;;;;;;;17.79;70.84;100127.44;7368273;19;20005;-63
2024/03/17 11:03:33;;;;;;;0.10;0.10;;;;;;;17.90;70.94;100134.69;7358892;19;20011;-62
2024/03/17 11:06:03;;;;;;;0.10;0.10;;;;;;;17.83;70.19;100117.50;7365125;19;20006;-62
2024/03/17 11:08:30;;;;;;;0.10;0.10;;;;;;;17.80;70.76;100115.91;7363759;19;20007;-62
2024/03/17 11:10:55;;;;;;;0.10;0.10;;;;;;;17.73;71.40;100114.56;7362361;19;20525;-62
2024/03/17 11:13:39;;;;;;;0.10;0.10;;;;;;;17.78;71.68;100119.56;7366488;19;20011;-62
2024/03/17 11:16:24;;;;;;;0.10;0.10;;;;;;;17.64;71.26;100113.34;7362260;19;20575;-62
2024/03/17 11:18:49;;;;;;;0.10;0.10;;;;;;;17.63;71.52;100116.91;7366594;19;19999;-62
2024/03/17 11:21:25;;;;;;;0.10;0.10;;;;;;;17.71;72.05;100115.59;7365798;19;20016;-62
2024/03/17 11:24:02;;;;;;;0.10;0.10;;;;;;;17.69;72.34;100114.81;7366348;19;20006;-62